Impacts METAR Board
IDs:

KORD - Chicago/O'Hare Intl, IL, US

Updated at: 1500 UTC 20 Aug 2019
Potential Impact None Slight Moderate High
Time 20/03Z 20/04Z 20/05Z 20/06Z 20/07Z 20/08Z 20/09Z 20/10Z 20/11Z 20/12Z 20/13Z 20/14Z 20/15Z
Temp77 76 75 75 74 73 72 71 71 72 74 75 76
Dewpt69 70 71 71 71 70 70 70 70 70 72 71 72
Altim30.01 30.01 30.01 30.01 30.00 30.01 30.02 30.00 29.98 30.00 30.00 30.01 29.98
VIS10 10 10 10 10 10 8 8 8 8 7 6 7
CIG65 40 -- -- -- -- -- -- -- 250 250 250 250
CoverBKNOVCFEWFEWFEWSCTSCTFEWSCTBKNOVCOVCOVC
FltCatVFRVFRVFRVFRVFRVFRVFRVFRVFRVFRVFRVFRVFR
WX---RA------------------BR--
WDir70901008000330003600220200
WSpd6 5 4 3 0 0 4 0 0 3 0 4 5
WGst-- -- -- -- -- -- -- -- -- -- -- -- --
Raw hourly METARs
KORD 200251Z 07006KT 10SM SCT041 BKN065 BKN080 25/21 A3001 RMK AO2 SLP157 T02500206 53009
KORD 200351Z 09005KT 10SM -RA BKN040 OVC060 24/21 A3001 RMK AO2 RAB49 SLP158 P0000 T02440211
KORD 200451Z 10004KT 10SM FEW060 24/22 A3001 RMK AO2 RAE0359 SLP156 P0000 T02390217
KORD 200551Z 08003KT 10SM FEW060 24/22 A3001 RMK AO2 SLP155 60000 T02390217 10267 20239 402940200 58002
KORD 200651Z 00000KT 10SM FEW060 23/22 A3000 RMK AO2 SLP155 T02330217
KORD 200751Z 00000KT 10SM FEW050 SCT250 23/21 A3001 RMK AO2 SLP157 T02280211
KORD 200851Z 33004KT 8SM FEW050 SCT250 22/21 A3002 RMK AO2 SLP161 T02220211 53006
KORD 200951Z 00000KT 8SM FEW050 FEW250 22/21 A3000 RMK AO2 SLP153 T02170211
KORD 201051Z 00000KT 8SM FEW023 SCT040 SCT250 22/21 A2998 RMK AO2 SLP147 T02170211
KORD 201151Z 36003KT 8SM SCT026 SCT045 BKN250 22/21 A3000 RMK AO2 SLP154 T02220211 10239 20217 55008
KORD 201251Z 00000KT 7SM FEW026 FEW050 OVC250 23/22 A3000 RMK AO2 SLP155 VIS NW 2 1/2 T02330222
KORD 201351Z 22004KT 6SM BR FEW010 FEW050 OVC250 24/22 A3001 RMK AO2 SLP157 T02390217
KORD 201451Z 20005KT 7SM FEW050 OVC250 24/22 A2998 RMK AO2 SLP148 T02440222 58005



Page loaded:  15:59 UTC  |   08:59 AM Pacific  |   09:59 AM Mountain  |   10:59 AM Central  |   11:59 AM Eastern

 

ADVISORIES

FORECASTS

FORECASTS

OBSERVATIONS

USER TOOLS

ABOUT US